sensor_id;sensor_type;location;lat;lon;timestamp;pressure;altitude;pressure_sealevel;temperature;humidity
17230;BME280;8731;50.364;8.958;2023-04-28T00:01:58;99943.06;;;13.45;57.54
17230;BME280;8731;50.364;8.958;2023-04-28T00:06:22;99936.34;;;13.35;57.51
17230;BME280;8731;50.364;8.958;2023-04-28T00:10:45;99931.06;;;13.44;56.54
17230;BME280;8731;50.364;8.958;2023-04-28T00:15:08;99936.28;;;13.45;55.02
17230;BME280;8731;50.364;8.958;2023-04-28T00:19:32;99928.50;;;13.22;55.45
17230;BME280;8731;50.364;8.958;2023-04-28T00:23:56;99908.81;;;13.43;54.89
17230;BME280;8731;50.364;8.958;2023-04-28T00:28:19;99911.25;;;13.41;55.21
17230;BME280;8731;50.364;8.958;2023-04-28T00:32:42;99891.78;;;13.43;55.77
17230;BME280;8731;50.364;8.958;2023-04-28T00:37:04;99888.34;;;13.43;55.86
17230;BME280;8731;50.364;8.958;2023-04-28T00:41:33;99879.44;;;13.38;56.90
17230;BME280;8731;50.364;8.958;2023-04-28T00:45:56;99875.06;;;13.25;60.27
17230;BME280;8731;50.364;8.958;2023-04-28T00:50:19;99875.44;;;13.41;61.09
17230;BME280;8731;50.364;8.958;2023-04-28T00:54:43;99868.78;;;13.43;60.57
17230;BME280;8731;50.364;8.958;2023-04-28T00:59:08;99874.31;;;13.38;61.28
17230;BME280;8731;50.364;8.958;2023-04-28T01:03:32;99868.44;;;13.39;60.73
17230;BME280;8731;50.364;8.958;2023-04-28T01:07:57;99864.75;;;13.35;62.91
17230;BME280;8731;50.364;8.958;2023-04-28T01:12:20;99856.31;;;13.36;64.35
17230;BME280;8731;50.364;8.958;2023-04-28T01:16:45;99855.41;;;13.14;64.32
17230;BME280;8731;50.364;8.958;2023-04-28T01:21:08;99853.69;;;13.03;65.46
17230;BME280;8731;50.364;8.958;2023-04-28T01:25:33;99846.50;;;13.09;65.11
17230;BME280;8731;50.364;8.958;2023-04-28T01:29:56;99838.59;;;13.06;66.38
17230;BME280;8731;50.364;8.958;2023-04-28T01:34:19;99845.72;;;13.10;66.02
17230;BME280;8731;50.364;8.958;2023-04-28T01:38:41;99843.94;;;13.09;66.05
17230;BME280;8731;50.364;8.958;2023-04-28T01:43:07;99836.59;;;13.02;67.30
17230;BME280;8731;50.364;8.958;2023-04-28T01:47:30;99828.75;;;13.00;67.65
17230;BME280;8731;50.364;8.958;2023-04-28T01:51:53;99833.00;;;13.00;67.86
17230;BME280;8731;50.364;8.958;2023-04-28T01:56:15;99823.81;;;13.02;66.48
17230;BME280;8731;50.364;8.958;2023-04-28T02:00:40;99810.25;;;12.81;64.87
17230;BME280;8731;50.364;8.958;2023-04-28T02:05:03;99802.53;;;12.91;64.56
17230;BME280;8731;50.364;8.958;2023-04-28T02:09:26;99793.19;;;12.91;64.14
17230;BME280;8731;50.364;8.958;2023-04-28T02:13:52;99797.63;;;12.94;64.35
17230;BME280;8731;50.364;8.958;2023-04-28T02:18:16;99804.75;;;12.98;64.11
17230;BME280;8731;50.364;8.958;2023-04-28T02:22:39;99798.28;;;12.91;64.74
17230;BME280;8731;50.364;8.958;2023-04-28T02:27:02;99796.75;;;12.94;64.80
17230;BME280;8731;50.364;8.958;2023-04-28T02:31:25;99802.75;;;12.94;64.49
17230;BME280;8731;50.364;8.958;2023-04-28T02:35:57;99795.19;;;12.96;63.93
17230;BME280;8731;50.364;8.958;2023-04-28T02:40:20;99794.53;;;12.98;64.57
17230;BME280;8731;50.364;8.958;2023-04-28T02:44:43;99792.06;;;12.88;66.07
17230;BME280;8731;50.364;8.958;2023-04-28T02:49:05;99795.59;;;12.78;68.80
17230;BME280;8731;50.364;8.958;2023-04-28T02:53:29;99787.59;;;12.42;74.34
17230;BME280;8731;50.364;8.958;2023-04-28T02:57:53;99787.34;;;12.39;75.50
17230;BME280;8731;50.364;8.958;2023-04-28T03:02:16;99780.38;;;12.58;73.49
17230;BME280;8731;50.364;8.958;2023-04-28T03:06:40;99779.38;;;12.56;74.15
17230;BME280;8731;50.364;8.958;2023-04-28T03:11:04;99771.41;;;12.63;74.26
17230;BME280;8731;50.364;8.958;2023-04-28T03:15:27;99778.22;;;12.31;77.20
17230;BME280;8731;50.364;8.958;2023-04-28T03:19:49;99771.50;;;12.43;75.93
17230;BME280;8731;50.364;8.958;2023-04-28T03:24:12;99766.31;;;12.53;74.76
17230;BME280;8731;50.364;8.958;2023-04-28T03:28:38;99765.63;;;12.44;74.37
17230;BME280;8731;50.364;8.958;2023-04-28T03:33:01;99764.03;;;12.24;78.40
17230;BME280;8731;50.364;8.958;2023-04-28T03:37:23;99765.75;;;12.45;75.44
17230;BME280;8731;50.364;8.958;2023-04-28T03:41:48;99757.03;;;12.21;78.76
17230;BME280;8731;50.364;8.958;2023-04-28T03:46:32;99749.56;;;12.03;82.18
17230;BME280;8731;50.364;8.958;2023-04-28T03:50:55;99737.22;;;12.07;80.69
17230;BME280;8731;50.364;8.958;2023-04-28T03:55:19;99735.16;;;12.03;78.08
17230;BME280;8731;50.364;8.958;2023-04-28T03:59:41;99722.69;;;11.96;82.01
17230;BME280;8731;50.364;8.958;2023-04-28T04:04:06;99732.16;;;12.19;79.65
17230;BME280;8731;50.364;8.958;2023-04-28T04:08:30;99739.72;;;12.17;80.22
17230;BME280;8731;50.364;8.958;2023-04-28T04:12:54;99735.97;;;12.24;79.27
17230;BME280;8731;50.364;8.958;2023-04-28T04:17:16;99741.72;;;12.21;79.35
17230;BME280;8731;50.364;8.958;2023-04-28T04:21:40;99732.00;;;12.27;77.63
17230;BME280;8731;50.364;8.958;2023-04-28T04:26:03;99730.09;;;12.25;76.21
17230;BME280;8731;50.364;8.958;2023-04-28T04:30:27;99723.31;;;12.25;76.41
17230;BME280;8731;50.364;8.958;2023-04-28T04:34:49;99723.16;;;12.12;77.15
17230;BME280;8731;50.364;8.958;2023-04-28T04:39:14;99736.91;;;12.14;76.56
17230;BME280;8731;50.364;8.958;2023-04-28T04:43:36;99724.41;;;12.17;74.98
17230;BME280;8731;50.364;8.958;2023-04-28T04:47:59;99717.75;;;12.19;74.91
17230;BME280;8731;50.364;8.958;2023-04-28T04:52:28;99724.72;;;12.00;77.92
17230;BME280;8731;50.364;8.958;2023-04-28T04:56:52;99729.25;;;12.14;76.89
17230;BME280;8731;50.364;8.958;2023-04-28T05:01:32;99750.44;;;12.13;77.72
17230;BME280;8731;50.364;8.958;2023-04-28T05:05:55;99762.97;;;12.10;77.96
17230;BME280;8731;50.364;8.958;2023-04-28T05:10:32;99761.50;;;11.72;83.09
17230;BME280;8731;50.364;8.958;2023-04-28T05:14:58;99748.13;;;11.84;83.13
17230;BME280;8731;50.364;8.958;2023-04-28T05:19:22;99736.75;;;11.91;83.53
17230;BME280;8731;50.364;8.958;2023-04-28T05:23:44;99735.16;;;12.03;81.81
17230;BME280;8731;50.364;8.958;2023-04-28T05:28:08;99737.03;;;11.84;84.79
17230;BME280;8731;50.364;8.958;2023-04-28T05:32:32;99725.97;;;11.53;87.65
17230;BME280;8731;50.364;8.958;2023-04-28T05:36:55;99729.25;;;11.72;85.06
17230;BME280;8731;50.364;8.958;2023-04-28T05:41:21;99733.97;;;11.67;86.27
17230;BME280;8731;50.364;8.958;2023-04-28T05:45:44;99722.84;;;11.77;85.37
17230;BME280;8731;50.364;8.958;2023-04-28T05:50:09;99721.72;;;11.74;86.17
17230;BME280;8731;50.364;8.958;2023-04-28T05:54:32;99731.66;;;11.71;83.76
17230;BME280;8731;50.364;8.958;2023-04-28T05:58:55;99747.72;;;11.90;85.78
17230;BME280;8731;50.364;8.958;2023-04-28T06:03:23;99750.00;;;11.77;89.13
17230;BME280;8731;50.364;8.958;2023-04-28T06:07:47;99757.09;;;12.01;84.87
17230;BME280;8731;50.364;8.958;2023-04-28T06:12:13;99753.06;;;11.83;85.09
17230;BME280;8731;50.364;8.958;2023-04-28T06:16:35;99771.53;;;12.01;83.89
17230;BME280;8731;50.364;8.958;2023-04-28T06:20:59;99764.84;;;11.60;86.93
17230;BME280;8731;50.364;8.958;2023-04-28T06:25:23;99755.28;;;11.48;88.59
17230;BME280;8731;50.364;8.958;2023-04-28T06:29:46;99755.19;;;11.36;91.44
17230;BME280;8731;50.364;8.958;2023-04-28T06:34:08;99755.78;;;11.84;86.51
17230;BME280;8731;50.364;8.958;2023-04-28T06:38:31;99762.25;;;11.91;85.96
17230;BME280;8731;50.364;8.958;2023-04-28T06:42:55;99760.47;;;11.80;86.41
17230;BME280;8731;50.364;8.958;2023-04-28T06:47:27;99770.19;;;11.53;88.19
17230;BME280;8731;50.364;8.958;2023-04-28T06:51:50;99778.59;;;11.73;87.76
17230;BME280;8731;50.364;8.958;2023-04-28T06:56:13;99767.50;;;11.72;86.82
17230;BME280;8731;50.364;8.958;2023-04-28T07:00:37;99764.84;;;11.50;90.48
17230;BME280;8731;50.364;8.958;2023-04-28T07:05:00;99762.06;;;11.47;92.17
17230;BME280;8731;50.364;8.958;2023-04-28T07:09:22;99760.66;;;11.10;96.04
17230;BME280;8731;50.364;8.958;2023-04-28T07:13:45;99751.50;;;11.12;96.30
17230;BME280;8731;50.364;8.958;2023-04-28T07:18:11;99737.72;;;11.41;93.02
17230;BME280;8731;50.364;8.958;2023-04-28T07:22:34;99732.13;;;10.94;96.83
17230;BME280;8731;50.364;8.958;2023-04-28T07:26:58;99721.28;;;11.37;94.34
17230;BME280;8731;50.364;8.958;2023-04-28T07:31:21;99740.38;;;11.62;92.76
17230;BME280;8731;50.364;8.958;2023-04-28T07:35:45;99736.84;;;11.40;94.51
17230;BME280;8731;50.364;8.958;2023-04-28T07:40:09;99712.88;;;11.38;93.64
17230;BME280;8731;50.364;8.958;2023-04-28T07:44:33;99700.75;;;11.46;92.27
17230;BME280;8731;50.364;8.958;2023-04-28T07:48:56;99675.44;;;11.17;96.77
17230;BME280;8731;50.364;8.958;2023-04-28T07:53:20;99669.66;;;11.29;98.46
17230;BME280;8731;50.364;8.958;2023-04-28T07:57:43;99671.66;;;11.54;98.60
17230;BME280;8731;50.364;8.958;2023-04-28T08:02:06;99693.81;;;11.65;98.28
17230;BME280;8731;50.364;8.958;2023-04-28T08:06:28;99701.44;;;11.75;94.10
17230;BME280;8731;50.364;8.958;2023-04-28T08:10:53;99716.66;;;11.53;95.61
17230;BME280;8731;50.364;8.958;2023-04-28T08:15:16;99719.03;;;11.82;93.06
17230;BME280;8731;50.364;8.958;2023-04-28T08:19:39;99730.63;;;11.89;93.11
17230;BME280;8731;50.364;8.958;2023-04-28T08:24:05;99728.28;;;12.02;92.42
17230;BME280;8731;50.364;8.958;2023-04-28T08:28:31;99725.84;;;12.04;92.68
17230;BME280;8731;50.364;8.958;2023-04-28T08:32:54;99726.56;;;11.71;97.12
17230;BME280;8731;50.364;8.958;2023-04-28T08:37:16;99729.22;;;11.82;98.43
17230;BME280;8731;50.364;8.958;2023-04-28T08:41:40;99730.16;;;12.15;95.99
17230;BME280;8731;50.364;8.958;2023-04-28T08:46:06;99736.38;;;12.18;95.22
17230;BME280;8731;50.364;8.958;2023-04-28T08:50:30;99730.38;;;12.18;96.45
17230;BME280;8731;50.364;8.958;2023-04-28T08:54:55;99726.00;;;12.49;93.24
17230;BME280;8731;50.364;8.958;2023-04-28T08:59:21;99730.00;;;12.45;91.60
17230;BME280;8731;50.364;8.958;2023-04-28T09:03:45;99737.38;;;12.31;95.38
17230;BME280;8731;50.364;8.958;2023-04-28T09:08:08;99731.75;;;12.24;100.00
17230;BME280;8731;50.364;8.958;2023-04-28T09:12:35;99727.28;;;12.54;95.39
17230;BME280;8731;50.364;8.958;2023-04-28T09:16:59;99730.50;;;12.85;94.05
17230;BME280;8731;50.364;8.958;2023-04-28T09:21:24;99734.09;;;12.65;92.50
17230;BME280;8731;50.364;8.958;2023-04-28T09:25:55;99739.22;;;12.77;93.49
17230;BME280;8731;50.364;8.958;2023-04-28T09:30:37;99724.28;;;12.81;96.09
17230;BME280;8731;50.364;8.958;2023-04-28T09:35:01;99728.38;;;12.79;92.68
17230;BME280;8731;50.364;8.958;2023-04-28T09:39:31;99735.53;;;12.62;93.02
17230;BME280;8731;50.364;8.958;2023-04-28T09:43:54;99727.66;;;12.70;93.44
17230;BME280;8731;50.364;8.958;2023-04-28T09:48:32;99720.66;;;12.68;94.56
17230;BME280;8731;50.364;8.958;2023-04-28T09:52:57;99712.88;;;12.66;95.50
17230;BME280;8731;50.364;8.958;2023-04-28T09:57:22;99718.09;;;12.89;92.57
17230;BME280;8731;50.364;8.958;2023-04-28T10:01:45;99724.34;;;12.71;95.45
17230;BME280;8731;50.364;8.958;2023-04-28T10:06:09;99725.34;;;12.73;99.26
17230;BME280;8731;50.364;8.958;2023-04-28T10:10:32;99728.84;;;13.19;94.08
17230;BME280;8731;50.364;8.958;2023-04-28T10:14:58;99726.03;;;13.16;93.24
17230;BME280;8731;50.364;8.958;2023-04-28T10:19:22;99726.22;;;13.29;92.86
17230;BME280;8731;50.364;8.958;2023-04-28T10:24:02;99717.03;;;13.09;93.52
17230;BME280;8731;50.364;8.958;2023-04-28T10:28:32;99705.91;;;13.09;96.80
17230;BME280;8731;50.364;8.958;2023-04-28T10:33:22;99713.59;;;13.09;97.80
17230;BME280;8731;50.364;8.958;2023-04-28T10:38:04;99711.03;;;13.09;99.42
17230;BME280;8731;50.364;8.958;2023-04-28T10:42:52;99708.22;;;12.72;100.00
17230;BME280;8731;50.364;8.958;2023-04-28T10:47:16;99703.78;;;13.25;98.85
17230;BME280;8731;50.364;8.958;2023-04-28T10:51:40;99699.28;;;13.23;96.24
17230;BME280;8731;50.364;8.958;2023-04-28T10:56:04;99695.47;;;13.51;93.75
17230;BME280;8731;50.364;8.958;2023-04-28T11:00:28;99680.91;;;13.16;99.95
17230;BME280;8731;50.364;8.958;2023-04-28T11:05:13;99687.25;;;13.10;100.00
17230;BME280;8731;50.364;8.958;2023-04-28T11:09:47;99676.97;;;13.43;100.00
17230;BME280;8731;50.364;8.958;2023-04-28T11:14:31;99664.41;;;13.70;96.74
17230;BME280;8731;50.364;8.958;2023-04-28T11:18:59;99667.53;;;13.66;98.47
17230;BME280;8731;50.364;8.958;2023-04-28T11:23:27;99655.91;;;14.06;98.19
17230;BME280;8731;50.364;8.958;2023-04-28T11:27:51;99655.75;;;14.16;97.84
17230;BME280;8731;50.364;8.958;2023-04-28T11:32:13;99672.09;;;14.30;92.82
17230;BME280;8731;50.364;8.958;2023-04-28T11:36:37;99669.78;;;14.21;97.00
17230;BME280;8731;50.364;8.958;2023-04-28T11:41:00;99660.03;;;13.92;99.54
17230;BME280;8731;50.364;8.958;2023-04-28T11:45:26;99665.16;;;14.04;98.71
17230;BME280;8731;50.364;8.958;2023-04-28T11:49:49;99673.94;;;13.96;98.63
17230;BME280;8731;50.364;8.958;2023-04-28T11:54:11;99682.13;;;14.27;96.82
17230;BME280;8731;50.364;8.958;2023-04-28T11:58:34;99677.84;;;14.51;94.82
17230;BME280;8731;50.364;8.958;2023-04-28T12:03:06;99667.03;;;14.55;91.92
17230;BME280;8731;50.364;8.958;2023-04-28T12:07:40;99660.59;;;14.48;92.45
17230;BME280;8731;50.364;8.958;2023-04-28T12:12:04;99661.69;;;14.77;92.15
17230;BME280;8731;50.364;8.958;2023-04-28T12:16:39;99660.97;;;14.91;93.61
17230;BME280;8731;50.364;8.958;2023-04-28T12:21:19;99652.34;;;14.52;95.73
17230;BME280;8731;50.364;8.958;2023-04-28T12:25:42;99638.81;;;14.80;92.23
17230;BME280;8731;50.364;8.958;2023-04-28T12:30:25;99631.28;;;14.94;91.41
17230;BME280;8731;50.364;8.958;2023-04-28T12:34:48;99646.53;;;15.44;92.37
17230;BME280;8731;50.364;8.958;2023-04-28T12:39:14;99642.53;;;15.10;94.58
17230;BME280;8731;50.364;8.958;2023-04-28T12:43:40;99641.66;;;15.35;93.88
17230;BME280;8731;50.364;8.958;2023-04-28T12:48:04;99648.97;;;15.56;92.15
17230;BME280;8731;50.364;8.958;2023-04-28T12:52:27;99646.06;;;15.63;90.00
17230;BME280;8731;50.364;8.958;2023-04-28T12:56:54;99649.47;;;15.37;93.11
17230;BME280;8731;50.364;8.958;2023-04-28T13:01:16;99645.03;;;15.34;93.78
17230;BME280;8731;50.364;8.958;2023-04-28T13:05:39;99641.28;;;15.95;91.47
17230;BME280;8731;50.364;8.958;2023-04-28T13:10:02;99635.72;;;16.16;90.75
17230;BME280;8731;50.364;8.958;2023-04-28T13:14:27;99631.91;;;16.24;88.02
17230;BME280;8731;50.364;8.958;2023-04-28T13:18:50;99632.88;;;16.54;88.25
17230;BME280;8731;50.364;8.958;2023-04-28T13:23:12;99639.97;;;16.43;86.59
17230;BME280;8731;50.364;8.958;2023-04-28T13:27:35;99636.63;;;16.03;89.67
17230;BME280;8731;50.364;8.958;2023-04-28T13:31:59;99613.47;;;16.16;89.43
17230;BME280;8731;50.364;8.958;2023-04-28T13:36:21;99607.88;;;16.37;88.43
17230;BME280;8731;50.364;8.958;2023-04-28T13:40:44;99617.75;;;16.31;88.05
17230;BME280;8731;50.364;8.958;2023-04-28T13:45:08;99597.88;;;16.84;86.14
17230;BME280;8731;50.364;8.958;2023-04-28T13:49:33;99586.50;;;16.95;87.46
17230;BME280;8731;50.364;8.958;2023-04-28T13:53:56;99569.66;;;17.30;85.37
17230;BME280;8731;50.364;8.958;2023-04-28T13:58:19;99566.47;;;17.50;84.08
17230;BME280;8731;50.364;8.958;2023-04-28T14:02:47;99567.31;;;17.65;83.09
17230;BME280;8731;50.364;8.958;2023-04-28T14:07:26;99554.91;;;17.58;83.78
17230;BME280;8731;50.364;8.958;2023-04-28T14:11:49;99555.03;;;17.45;83.53
17230;BME280;8731;50.364;8.958;2023-04-28T14:16:11;99548.44;;;17.34;84.50
17230;BME280;8731;50.364;8.958;2023-04-28T14:20:34;99566.13;;;17.44;83.51
17230;BME280;8731;50.364;8.958;2023-04-28T14:24:58;99551.72;;;17.31;85.19
17230;BME280;8731;50.364;8.958;2023-04-28T14:29:20;99558.09;;;17.23;85.02
17230;BME280;8731;50.364;8.958;2023-04-28T14:33:43;99552.03;;;17.52;84.02
17230;BME280;8731;50.364;8.958;2023-04-28T14:38:06;99565.69;;;17.51;84.51
17230;BME280;8731;50.364;8.958;2023-04-28T14:42:31;99557.88;;;16.89;88.95
17230;BME280;8731;50.364;8.958;2023-04-28T14:46:55;99561.47;;;17.22;86.84
17230;BME280;8731;50.364;8.958;2023-04-28T14:51:19;99560.31;;;17.32;85.87
17230;BME280;8731;50.364;8.958;2023-04-28T14:55:42;99550.44;;;17.08;88.40
17230;BME280;8731;50.364;8.958;2023-04-28T15:00:09;99561.50;;;17.07;87.32
17230;BME280;8731;50.364;8.958;2023-04-28T15:04:33;99559.94;;;17.26;87.06
17230;BME280;8731;50.364;8.958;2023-04-28T15:08:57;99548.09;;;16.98;90.21
17230;BME280;8731;50.364;8.958;2023-04-28T15:13:19;99549.63;;;16.95;91.33
17230;BME280;8731;50.364;8.958;2023-04-28T15:17:45;99554.34;;;16.87;92.49
17230;BME280;8731;50.364;8.958;2023-04-28T15:22:08;99548.91;;;16.97;93.43
17230;BME280;8731;50.364;8.958;2023-04-28T15:26:33;99531.44;;;17.06;95.12
17230;BME280;8731;50.364;8.958;2023-04-28T15:30:55;99527.03;;;17.04;98.44
17230;BME280;8731;50.364;8.958;2023-04-28T15:35:20;99543.03;;;17.14;97.87
17230;BME280;8731;50.364;8.958;2023-04-28T15:39:42;99532.44;;;17.25;91.55
17230;BME280;8731;50.364;8.958;2023-04-28T15:44:05;99519.72;;;17.42;92.17
17230;BME280;8731;50.364;8.958;2023-04-28T15:48:29;99512.66;;;17.38;91.15
17230;BME280;8731;50.364;8.958;2023-04-28T15:52:53;99493.78;;;17.54;93.21
17230;BME280;8731;50.364;8.958;2023-04-28T15:57:15;99509.34;;;17.41;92.96
17230;BME280;8731;50.364;8.958;2023-04-28T16:01:38;99524.59;;;17.53;93.60
17230;BME280;8731;50.364;8.958;2023-04-28T16:06:00;99514.53;;;17.57;92.76
17230;BME280;8731;50.364;8.958;2023-04-28T16:10:24;99519.03;;;17.61;90.73
17230;BME280;8731;50.364;8.958;2023-04-28T16:14:48;99517.19;;;17.59;93.14
17230;BME280;8731;50.364;8.958;2023-04-28T16:19:10;99519.94;;;17.62;91.34
17230;BME280;8731;50.364;8.958;2023-04-28T16:23:35;99532.28;;;17.67;93.24
17230;BME280;8731;50.364;8.958;2023-04-28T16:27:59;99517.59;;;17.66;91.38
17230;BME280;8731;50.364;8.958;2023-04-28T16:32:22;99501.44;;;17.53;93.98
17230;BME280;8731;50.364;8.958;2023-04-28T16:36:44;99490.41;;;17.55;94.12
17230;BME280;8731;50.364;8.958;2023-04-28T16:41:07;99492.63;;;17.49;91.57
17230;BME280;8731;50.364;8.958;2023-04-28T16:45:31;99499.81;;;17.55;92.36
17230;BME280;8731;50.364;8.958;2023-04-28T16:49:53;99492.81;;;17.52;91.82
17230;BME280;8731;50.364;8.958;2023-04-28T16:54:16;99483.50;;;17.54;94.86
17230;BME280;8731;50.364;8.958;2023-04-28T16:58:39;99468.50;;;17.47;95.71
17230;BME280;8731;50.364;8.958;2023-04-28T17:03:06;99470.78;;;17.57;94.96
17230;BME280;8731;50.364;8.958;2023-04-28T17:07:29;99485.41;;;17.58;94.54
17230;BME280;8731;50.364;8.958;2023-04-28T17:11:52;99503.16;;;17.68;93.49
17230;BME280;8731;50.364;8.958;2023-04-28T17:16:14;99491.78;;;17.65;93.26
17230;BME280;8731;50.364;8.958;2023-04-28T17:20:38;99477.41;;;17.68;93.47
17230;BME280;8731;50.364;8.958;2023-04-28T17:25:01;99487.78;;;17.70;93.73
17230;BME280;8731;50.364;8.958;2023-04-28T17:29:24;99478.19;;;17.51;96.63
17230;BME280;8731;50.364;8.958;2023-04-28T17:33:49;99474.59;;;17.49;96.87
17230;BME280;8731;50.364;8.958;2023-04-28T17:38:13;99473.03;;;17.51;95.58
17230;BME280;8731;50.364;8.958;2023-04-28T17:42:36;99489.47;;;17.69;93.34
17230;BME280;8731;50.364;8.958;2023-04-28T17:46:59;99494.84;;;17.74;92.02
17230;BME280;8731;50.364;8.958;2023-04-28T17:51:23;99487.03;;;17.56;92.49
17230;BME280;8731;50.364;8.958;2023-04-28T17:55:48;99488.47;;;17.51;93.15
17230;BME280;8731;50.364;8.958;2023-04-28T18:00:12;99496.69;;;17.60;91.62
17230;BME280;8731;50.364;8.958;2023-04-28T18:04:35;99489.25;;;17.34;94.46
17230;BME280;8731;50.364;8.958;2023-04-28T18:08:58;99506.63;;;17.38;93.73
17230;BME280;8731;50.364;8.958;2023-04-28T18:13:22;99531.88;;;17.14;96.02
17230;BME280;8731;50.364;8.958;2023-04-28T18:17:44;99536.03;;;17.12;96.68
17230;BME280;8731;50.364;8.958;2023-04-28T18:22:07;99526.50;;;17.26;94.09
17230;BME280;8731;50.364;8.958;2023-04-28T18:26:29;99524.56;;;17.22;92.90
17230;BME280;8731;50.364;8.958;2023-04-28T18:30:57;99538.63;;;17.12;94.49
17230;BME280;8731;50.364;8.958;2023-04-28T18:35:25;99536.94;;;17.12;94.20
17230;BME280;8731;50.364;8.958;2023-04-28T18:39:56;99535.88;;;16.79;94.63
17230;BME280;8731;50.364;8.958;2023-04-28T18:44:25;99537.38;;;16.76;98.23
17230;BME280;8731;50.364;8.958;2023-04-28T18:48:52;99530.31;;;16.86;96.38
17230;BME280;8731;50.364;8.958;2023-04-28T18:53:14;99542.69;;;16.79;96.33
17230;BME280;8731;50.364;8.958;2023-04-28T18:57:38;99539.97;;;16.76;95.30
17230;BME280;8731;50.364;8.958;2023-04-28T19:02:02;99545.34;;;16.66;95.43
17230;BME280;8731;50.364;8.958;2023-04-28T19:06:28;99549.16;;;16.57;95.24
17230;BME280;8731;50.364;8.958;2023-04-28T19:10:51;99555.69;;;16.52;94.90
17230;BME280;8731;50.364;8.958;2023-04-28T19:15:13;99563.03;;;16.46;94.67
17230;BME280;8731;50.364;8.958;2023-04-28T19:19:38;99572.78;;;16.37;94.91
17230;BME280;8731;50.364;8.958;2023-04-28T19:24:09;99572.41;;;16.03;96.82
17230;BME280;8731;50.364;8.958;2023-04-28T19:33:53;99577.91;;;15.81;95.34
17230;BME280;8731;50.364;8.958;2023-04-28T19:38:17;99592.50;;;15.82;94.39
17230;BME280;8731;50.364;8.958;2023-04-28T19:42:45;99592.13;;;15.76;94.50
17230;BME280;8731;50.364;8.958;2023-04-28T19:47:10;99600.72;;;15.77;94.84
17230;BME280;8731;50.364;8.958;2023-04-28T19:51:42;99609.31;;;15.77;95.55
17230;BME280;8731;50.364;8.958;2023-04-28T19:56:05;99629.78;;;15.62;97.23
17230;BME280;8731;50.364;8.958;2023-04-28T20:00:30;99666.84;;;15.54;100.00
17230;BME280;8731;50.364;8.958;2023-04-28T20:04:52;99651.53;;;15.56;100.00
17230;BME280;8731;50.364;8.958;2023-04-28T20:09:15;99662.47;;;15.65;100.00
17230;BME280;8731;50.364;8.958;2023-04-28T20:13:38;99661.72;;;15.54;100.00
17230;BME280;8731;50.364;8.958;2023-04-28T20:18:01;99662.13;;;15.60;100.00
17230;BME280;8731;50.364;8.958;2023-04-28T20:22:27;99661.16;;;15.58;98.93
17230;BME280;8731;50.364;8.958;2023-04-28T20:27:01;99663.59;;;15.57;98.62
17230;BME280;8731;50.364;8.958;2023-04-28T20:31:34;99666.47;;;15.48;97.42
17230;BME280;8731;50.364;8.958;2023-04-28T20:36:01;99673.66;;;15.41;97.00
17230;BME280;8731;50.364;8.958;2023-04-28T20:40:34;99671.09;;;15.41;95.13
17230;BME280;8731;50.364;8.958;2023-04-28T20:44:56;99671.47;;;15.20;95.49
17230;BME280;8731;50.364;8.958;2023-04-28T20:49:19;99673.84;;;15.17;91.82
17230;BME280;8731;50.364;8.958;2023-04-28T20:53:43;99682.47;;;15.06;91.95
17230;BME280;8731;50.364;8.958;2023-04-28T20:58:05;99684.25;;;15.07;90.27
17230;BME280;8731;50.364;8.958;2023-04-28T21:02:28;99688.38;;;14.92;91.07
17230;BME280;8731;50.364;8.958;2023-04-28T21:06:51;99679.44;;;14.87;90.75
17230;BME280;8731;50.364;8.958;2023-04-28T21:11:16;99686.59;;;14.91;89.91
17230;BME280;8731;50.364;8.958;2023-04-28T21:15:38;99691.06;;;14.82;89.59
17230;BME280;8731;50.364;8.958;2023-04-28T21:20:01;99687.13;;;14.87;88.84
17230;BME280;8731;50.364;8.958;2023-04-28T21:24:23;99681.19;;;14.74;88.73
17230;BME280;8731;50.364;8.958;2023-04-28T21:28:47;99676.28;;;14.53;88.93
17230;BME280;8731;50.364;8.958;2023-04-28T21:33:10;99679.22;;;14.46;88.92
17230;BME280;8731;50.364;8.958;2023-04-28T21:37:32;99688.09;;;14.39;89.96
17230;BME280;8731;50.364;8.958;2023-04-28T21:41:55;99694.72;;;14.24;90.78
17230;BME280;8731;50.364;8.958;2023-04-28T21:46:18;99691.22;;;14.35;89.23
17230;BME280;8731;50.364;8.958;2023-04-28T21:50:41;99689.09;;;14.04;91.58
17230;BME280;8731;50.364;8.958;2023-04-28T21:55:04;99684.63;;;14.02;90.01
17230;BME280;8731;50.364;8.958;2023-04-28T21:59:27;99684.06;;;13.94;90.06
17230;BME280;8731;50.364;8.958;2023-04-28T22:03:51;99679.53;;;14.02;88.91
17230;BME280;8731;50.364;8.958;2023-04-28T22:08:14;99679.97;;;13.85;89.35
17230;BME280;8731;50.364;8.958;2023-04-28T22:12:36;99689.56;;;13.75;88.78
17230;BME280;8731;50.364;8.958;2023-04-28T22:16:59;99693.56;;;13.60;90.92
17230;BME280;8731;50.364;8.958;2023-04-28T22:21:23;99691.25;;;13.51;90.57
17230;BME280;8731;50.364;8.958;2023-04-28T22:25:45;99690.00;;;13.35;91.13
17230;BME280;8731;50.364;8.958;2023-04-28T22:30:09;99693.00;;;13.29;91.50
17230;BME280;8731;50.364;8.958;2023-04-28T22:34:32;99685.31;;;13.29;91.65
17230;BME280;8731;50.364;8.958;2023-04-28T22:38:55;99686.63;;;13.24;90.58
17230;BME280;8731;50.364;8.958;2023-04-28T22:43:18;99694.59;;;13.17;91.15
17230;BME280;8731;50.364;8.958;2023-04-28T22:47:40;99692.38;;;13.10;92.37
17230;BME280;8731;50.364;8.958;2023-04-28T22:52:02;99694.53;;;12.94;92.63
17230;BME280;8731;50.364;8.958;2023-04-28T22:56:27;99696.78;;;13.01;91.85
17230;BME280;8731;50.364;8.958;2023-04-28T23:00:49;99698.38;;;12.77;93.17
17230;BME280;8731;50.364;8.958;2023-04-28T23:05:12;99694.69;;;12.73;94.80
17230;BME280;8731;50.364;8.958;2023-04-28T23:09:34;99708.91;;;12.70;94.10
17230;BME280;8731;50.364;8.958;2023-04-28T23:13:58;99701.97;;;12.57;93.62
17230;BME280;8731;50.364;8.958;2023-04-28T23:18:20;99710.75;;;12.39;94.41
17230;BME280;8731;50.364;8.958;2023-04-28T23:22:43;99709.44;;;12.22;95.57
17230;BME280;8731;50.364;8.958;2023-04-28T23:27:05;99717.19;;;12.34;94.19
17230;BME280;8731;50.364;8.958;2023-04-28T23:31:29;99711.31;;;12.35;93.82
17230;BME280;8731;50.364;8.958;2023-04-28T23:35:52;99721.19;;;12.20;94.94
17230;BME280;8731;50.364;8.958;2023-04-28T23:40:14;99720.19;;;12.18;94.23
17230;BME280;8731;50.364;8.958;2023-04-28T23:44:37;99723.81;;;12.32;94.16